createdAt,value
2022-07-29T00:01:19.557Z,95723.56
2022-07-29T00:03:46.352Z,95722.25
2022-07-29T00:06:12.779Z,95713.00
2022-07-29T00:08:39.432Z,95707.81
2022-07-29T00:11:05.874Z,95710.00
2022-07-29T00:13:32.936Z,95709.69
2022-07-29T00:16:04.533Z,95710.88
2022-07-29T00:18:31.504Z,95714.00
2022-07-29T00:20:57.915Z,95716.56
2022-07-29T00:23:24.387Z,95712.38
2022-07-29T00:25:50.812Z,95720.25
2022-07-29T00:28:17.246Z,95717.44
2022-07-29T00:30:43.689Z,95722.16
2022-07-29T00:33:10.086Z,95726.81
2022-07-29T00:35:36.478Z,95725.50
2022-07-29T00:38:02.902Z,95719.13
2022-07-29T00:40:29.312Z,95727.47
2022-07-29T00:42:55.709Z,95728.94
2022-07-29T00:45:22.145Z,95723.88
2022-07-29T00:47:48.540Z,95729.16
2022-07-29T00:50:14.968Z,95722.94
2022-07-29T00:52:41.529Z,95729.06
2022-07-29T00:55:12.039Z,95725.91
2022-07-29T00:57:38.445Z,95728.28
2022-07-29T01:00:04.901Z,95725.41
2022-07-29T01:02:31.353Z,95724.84
2022-07-29T01:04:58.925Z,95722.41
2022-07-29T01:07:25.484Z,95719.53
2022-07-29T01:09:51.869Z,95731.50
2022-07-29T01:12:18.251Z,95728.50
2022-07-29T01:14:44.778Z,95721.59
2022-07-29T01:17:13.593Z,95720.50
2022-07-29T01:19:39.981Z,95715.97
2022-07-29T01:22:06.428Z,95714.91
2022-07-29T01:24:32.817Z,95717.16
2022-07-29T01:26:59.214Z,95714.03
2022-07-29T01:29:25.641Z,95718.44
2022-07-29T01:32:02.323Z,95719.84
2022-07-29T01:34:28.829Z,95713.41
2022-07-29T01:36:55.221Z,95715.34
2022-07-29T01:39:21.628Z,95714.38
2022-07-29T01:41:48.101Z,95723.16
2022-07-29T01:44:14.750Z,95715.47
2022-07-29T01:46:41.399Z,95722.34
2022-07-29T01:49:07.993Z,95720.63
2022-07-29T01:51:34.443Z,95718.38
2022-07-29T01:54:01.922Z,95720.63
2022-07-29T01:56:28.461Z,95719.44
2022-07-29T01:58:54.853Z,95728.25
2022-07-29T02:01:21.323Z,95723.44
2022-07-29T02:03:47.953Z,95728.03
2022-07-29T02:06:14.374Z,95726.28
2022-07-29T02:08:40.777Z,95723.00
2022-07-29T02:11:08.419Z,95728.13
2022-07-29T02:13:34.822Z,95733.03
2022-07-29T02:16:02.682Z,95725.03
2022-07-29T02:18:29.177Z,95726.53
2022-07-29T02:20:55.584Z,95725.78
2022-07-29T02:23:23.207Z,95725.03
2022-07-29T02:25:49.709Z,95718.59
2022-07-29T02:28:16.870Z,95718.91
2022-07-29T02:30:43.383Z,95718.06
2022-07-29T02:33:09.996Z,95711.63
2022-07-29T02:35:36.400Z,95711.28
2022-07-29T02:38:02.906Z,95713.25
2022-07-29T02:40:29.332Z,95722.03
2022-07-29T02:42:55.724Z,95723.41
2022-07-29T02:45:23.474Z,95720.34
2022-07-29T02:47:49.923Z,95721.91
2022-07-29T02:50:20.705Z,95719.78
2022-07-29T02:52:47.107Z,95711.19
2022-07-29T02:55:16.553Z,95716.47
2022-07-29T02:57:55.123Z,95718.06
2022-07-29T03:00:22.015Z,95722.47
2022-07-29T03:02:48.445Z,95723.00
2022-07-29T03:05:14.862Z,95730.63
2022-07-29T03:07:43.142Z,95724.31
2022-07-29T03:10:13.431Z,95732.34
2022-07-29T03:12:40.176Z,95728.16
2022-07-29T03:15:06.599Z,95733.69
2022-07-29T03:17:34.088Z,95730.25
2022-07-29T03:20:00.474Z,95731.06
2022-07-29T03:22:26.936Z,95736.84
2022-07-29T03:24:54.450Z,95730.75
2022-07-29T03:27:20.858Z,95728.91
2022-07-29T03:29:49.914Z,95726.53
2022-07-29T03:32:17.127Z,95729.22
2022-07-29T03:34:50.529Z,95732.00
2022-07-29T03:37:16.920Z,95728.38
2022-07-29T03:39:43.359Z,95724.72
2022-07-29T03:42:09.817Z,95727.72
2022-07-29T03:44:36.214Z,95727.50
2022-07-29T03:47:03.962Z,95732.31
2022-07-29T03:49:30.398Z,95726.00
2022-07-29T03:51:56.815Z,95727.00
2022-07-29T03:54:25.289Z,95734.69
2022-07-29T03:56:51.746Z,95734.06
2022-07-29T03:59:19.993Z,95730.22
2022-07-29T04:01:46.508Z,95729.88
2022-07-29T04:04:13.243Z,95729.31
2022-07-29T04:06:39.844Z,95744.78
2022-07-29T04:09:06.261Z,95742.88
2022-07-29T04:12:01.351Z,95753.81
2022-07-29T04:14:24.121Z,95745.13
2022-07-29T04:16:50.584Z,95751.31
2022-07-29T04:19:16.978Z,95741.53
2022-07-29T04:21:43.448Z,95746.63
2022-07-29T04:24:09.877Z,95748.66
2022-07-29T04:26:36.291Z,95741.34
2022-07-29T04:29:04.045Z,95739.88
2022-07-29T04:31:30.559Z,95752.75
2022-07-29T04:33:56.989Z,95760.03
2022-07-29T04:36:29.437Z,95766.25
2022-07-29T04:38:56.304Z,95764.75
2022-07-29T04:41:22.682Z,95770.47
2022-07-29T04:43:49.682Z,95767.03
2022-07-29T04:46:16.347Z,95770.44
2022-07-29T04:48:44.933Z,95769.00
2022-07-29T04:51:11.584Z,95771.72
2022-07-29T04:53:39.383Z,95771.09
2022-07-29T04:56:05.827Z,95775.38
2022-07-29T04:58:32.231Z,95776.69
2022-07-29T05:00:58.810Z,95774.63
2022-07-29T05:03:25.207Z,95769.69
2022-07-29T05:05:51.606Z,95778.16
2022-07-29T05:08:18.079Z,95781.28
2022-07-29T05:10:44.462Z,95789.66
2022-07-29T05:13:10.860Z,95792.78
2022-07-29T05:15:38.437Z,95789.56
2022-07-29T05:18:04.895Z,95795.91
2022-07-29T05:20:35.438Z,95790.84
2022-07-29T05:23:01.882Z,95799.44
2022-07-29T05:25:43.872Z,95789.97
2022-07-29T05:28:11.319Z,95792.25
2022-07-29T05:30:39.649Z,95802.22
2022-07-29T05:33:06.114Z,95798.25
2022-07-29T05:35:32.544Z,95794.50
2022-07-29T05:38:01.913Z,95796.31
2022-07-29T05:40:28.431Z,95799.84
2022-07-29T05:42:54.864Z,95792.47
2022-07-29T05:45:21.277Z,95797.41
2022-07-29T05:47:47.699Z,95804.06
2022-07-29T05:50:14.171Z,95808.13
2022-07-29T05:52:40.600Z,95808.13
2022-07-29T05:55:07.004Z,95812.75
2022-07-29T05:57:34.602Z,95814.13
2022-07-29T06:00:01.010Z,95820.25
2022-07-29T06:02:29.245Z,95820.91
2022-07-29T06:04:55.814Z,95824.84
2022-07-29T06:07:22.289Z,95815.19
2022-07-29T06:09:48.710Z,95822.91
2022-07-29T06:12:15.305Z,95814.63
2022-07-29T06:14:41.749Z,95813.03
2022-07-29T06:17:08.132Z,95818.41
2022-07-29T06:19:34.672Z,95824.66
2022-07-29T06:22:01.236Z,95820.59
2022-07-29T06:24:28.838Z,95825.56
2022-07-29T06:26:55.309Z,95825.22
2022-07-29T06:29:21.722Z,95832.84
2022-07-29T06:31:49.251Z,95836.38
2022-07-29T06:34:16.042Z,95847.00
2022-07-29T06:36:46.018Z,95841.97
2022-07-29T06:39:12.529Z,95845.09
2022-07-29T06:41:39.042Z,95841.72
2022-07-29T06:44:05.453Z,95853.91
2022-07-29T06:46:33.442Z,95837.56
2022-07-29T06:49:00.054Z,95841.50
2022-07-29T06:51:26.555Z,95834.63
2022-07-29T06:54:01.620Z,95836.47
2022-07-29T06:56:29.954Z,95832.25
2022-07-29T06:58:56.349Z,95841.06
2022-07-29T07:01:22.863Z,95840.09
2022-07-29T07:03:49.516Z,95838.63
2022-07-29T07:06:15.944Z,95831.72
2022-07-29T07:08:43.713Z,95836.34
2022-07-29T07:11:10.157Z,95843.03
2022-07-29T07:13:36.894Z,95850.84
2022-07-29T07:16:03.525Z,95853.34
2022-07-29T07:18:29.968Z,95847.09
2022-07-29T07:20:56.367Z,95849.22
2022-07-29T07:23:22.827Z,95844.19
2022-07-29T07:25:49.639Z,95839.97
2022-07-29T07:28:16.051Z,95841.91
2022-07-29T07:30:42.507Z,95847.19
2022-07-29T07:33:08.996Z,95851.50
2022-07-29T07:35:35.421Z,95858.88
2022-07-29T07:38:01.882Z,95857.50
2022-07-29T07:40:28.512Z,95862.47
2022-07-29T07:42:54.907Z,95856.44
2022-07-29T07:45:21.318Z,95870.44
2022-07-29T07:47:47.775Z,95861.28
2022-07-29T07:50:18.763Z,95869.56
2022-07-29T07:52:45.690Z,95872.25
2022-07-29T07:55:12.301Z,95884.06
2022-07-29T07:57:38.846Z,95890.84
2022-07-29T08:00:05.248Z,95881.53
2022-07-29T08:02:31.848Z,95877.88
2022-07-29T08:04:58.290Z,95874.56
2022-07-29T08:07:24.736Z,95862.88
2022-07-29T08:09:51.228Z,95863.00
2022-07-29T08:12:17.692Z,95873.56
2022-07-29T08:14:44.102Z,95870.06
2022-07-29T08:17:10.586Z,95863.34
2022-07-29T08:19:37.187Z,95884.47
2022-07-29T08:22:03.620Z,95871.84
2022-07-29T08:24:30.114Z,95871.63
2022-07-29T08:26:56.559Z,95878.41
2022-07-29T08:29:23.008Z,95880.34
2022-07-29T08:31:49.578Z,95881.94
2022-07-29T08:34:16.017Z,95888.63
2022-07-29T08:36:42.409Z,95879.41
2022-07-29T08:39:08.878Z,95900.00
2022-07-29T08:41:35.322Z,95888.63
2022-07-29T08:44:01.732Z,95884.63
2022-07-29T08:46:28.275Z,95889.41
2022-07-29T08:48:57.756Z,95883.66
2022-07-29T08:51:27.152Z,95881.28
2022-07-29T08:53:56.490Z,95886.72
2022-07-29T08:56:25.216Z,95885.56
2022-07-29T08:58:52.379Z,95880.00
2022-07-29T09:01:19.250Z,95887.22
2022-07-29T09:03:46.614Z,95885.69
2022-07-29T09:06:15.162Z,95885.28
2022-07-29T09:08:41.647Z,95887.75
2022-07-29T09:11:08.188Z,95896.00
2022-07-29T09:13:34.625Z,95897.88
2022-07-29T09:16:08.641Z,95899.81
2022-07-29T09:18:35.649Z,95902.50
2022-07-29T09:21:02.061Z,95902.97
2022-07-29T09:23:28.567Z,95902.97
2022-07-29T09:25:55.032Z,95901.91
2022-07-29T09:28:21.432Z,95901.25
2022-07-29T09:30:47.877Z,95903.63
2022-07-29T09:33:14.373Z,95906.31
2022-07-29T09:35:40.782Z,95902.75
2022-07-29T09:38:23.093Z,95894.41
2022-07-29T09:40:49.519Z,95901.75
2022-07-29T09:43:15.948Z,95908.53
2022-07-29T09:45:42.416Z,95901.91
2022-07-29T09:48:08.918Z,95900.63
2022-07-29T09:50:35.354Z,95903.31
2022-07-29T09:53:02.918Z,95896.84
2022-07-29T09:55:29.448Z,95898.38
2022-07-29T09:57:55.853Z,95903.53
2022-07-29T10:00:22.382Z,95911.34
2022-07-29T10:02:48.819Z,95911.31
2022-07-29T10:05:15.224Z,95903.09
2022-07-29T10:07:41.660Z,95906.00
2022-07-29T10:10:08.056Z,95898.66
2022-07-29T10:12:34.573Z,95902.50
2022-07-29T10:15:01.067Z,95909.94
2022-07-29T10:17:27.551Z,95905.34
2022-07-29T10:19:54.074Z,95911.34
2022-07-29T10:22:43.594Z,95911.25
2022-07-29T10:25:06.956Z,95906.63
2022-07-29T10:27:33.414Z,95905.13
2022-07-29T10:29:59.965Z,95917.00
2022-07-29T10:32:26.490Z,95920.38
2022-07-29T10:34:54.573Z,95924.78
2022-07-29T10:37:20.999Z,95922.09
2022-07-29T10:39:49.587Z,95913.66
2022-07-29T10:42:17.040Z,95915.38
2022-07-29T10:44:46.574Z,95922.59
2022-07-29T10:47:13.792Z,95923.69
2022-07-29T10:49:41.105Z,95917.22
2022-07-29T10:52:07.642Z,95924.09
2022-07-29T10:54:34.407Z,95922.50
2022-07-29T10:57:00.877Z,95932.44
2022-07-29T10:59:29.029Z,95927.00
2022-07-29T11:02:27.992Z,95931.41
2022-07-29T11:04:52.065Z,95945.16
2022-07-29T11:07:19.927Z,95953.53
2022-07-29T11:09:46.619Z,95959.22
2022-07-29T11:12:13.177Z,95969.84
2022-07-29T11:14:42.734Z,95985.53
2022-07-29T11:17:10.025Z,95994.66
2022-07-29T11:19:42.427Z,96013.75
2022-07-29T11:22:11.283Z,96028.84
2022-07-29T11:24:37.914Z,96038.56
2022-07-29T11:27:18.381Z,96049.56
2022-07-29T11:29:46.436Z,96057.53
2022-07-29T11:32:22.812Z,96057.84
2022-07-29T11:34:50.123Z,96063.22
2022-07-29T11:37:20.060Z,96070.84
2022-07-29T11:39:54.216Z,96079.97
2022-07-29T11:42:32.657Z,96077.72
2022-07-29T11:45:08.492Z,96070.75
2022-07-29T11:47:47.497Z,96073.44
2022-07-29T11:50:14.099Z,96088.19
2022-07-29T11:52:50.003Z,96082.50
2022-07-29T11:55:16.786Z,96079.53
2022-07-29T11:57:43.971Z,96079.19
2022-07-29T12:00:30.473Z,96081.47
2022-07-29T12:02:57.454Z,96080.63
2022-07-29T12:05:36.187Z,96083.66
2022-07-29T12:08:03.211Z,96084.47
2022-07-29T12:10:30.864Z,96086.31
2022-07-29T12:12:57.372Z,96091.28
2022-07-29T12:15:23.843Z,96086.66
2022-07-29T12:17:50.266Z,96089.28
2022-07-29T12:20:16.687Z,96084.31
2022-07-29T12:22:47.015Z,96086.88
2022-07-29T12:27:59.901Z,96091.81
2022-07-29T12:30:26.508Z,96083.72
2022-07-29T12:32:54.893Z,96084.16
2022-07-29T12:35:21.377Z,96088.25
2022-07-29T12:37:47.865Z,96084.47
2022-07-29T12:40:14.251Z,96083.72
2022-07-29T12:42:40.697Z,96084.75
2022-07-29T12:45:07.159Z,96092.38
2022-07-29T12:47:33.614Z,96089.78
2022-07-29T12:50:00.092Z,96081.81
2022-07-29T12:52:26.511Z,96094.81
2022-07-29T12:54:52.978Z,96090.53
2022-07-29T12:57:20.083Z,96097.75
2022-07-29T12:59:46.912Z,96090.47
2022-07-29T13:02:13.436Z,96094.41
2022-07-29T13:04:39.921Z,96105.03
2022-07-29T13:07:06.320Z,96102.44
2022-07-29T13:09:32.723Z,96107.03
2022-07-29T13:11:59.340Z,96108.19
2022-07-29T13:14:26.088Z,96098.88
2022-07-29T13:16:55.302Z,96101.69
2022-07-29T13:19:21.799Z,96103.59
2022-07-29T13:21:48.228Z,96105.03
2022-07-29T13:24:19.503Z,96105.78
2022-07-29T13:26:46.313Z,96106.13
2022-07-29T13:29:12.752Z,96111.84
2022-07-29T13:31:39.181Z,96108.31
2022-07-29T13:34:05.660Z,96113.19
2022-07-29T13:36:32.085Z,96127.06
2022-07-29T13:39:02.864Z,96116.09
2022-07-29T13:41:29.337Z,96108.97
2022-07-29T13:43:55.757Z,96112.81
2022-07-29T13:46:22.195Z,96109.78
2022-07-29T13:48:48.747Z,96102.44
2022-07-29T13:51:15.220Z,96108.81
2022-07-29T13:53:44.011Z,96106.13
2022-07-29T13:56:10.466Z,96108.72
2022-07-29T13:58:36.892Z,96100.75
2022-07-29T14:01:03.292Z,96103.81
2022-07-29T14:03:29.877Z,96110.16
2022-07-29T14:05:57.424Z,96097.75
2022-07-29T14:08:23.822Z,96095.06
2022-07-29T14:10:50.552Z,96090.13
2022-07-29T14:13:25.126Z,96085.19
2022-07-29T14:15:52.089Z,96082.75
2022-07-29T14:18:18.754Z,96078.22
2022-07-29T14:20:45.218Z,96076.25
2022-07-29T14:23:11.682Z,96073.88
2022-07-29T14:25:40.733Z,96073.88
2022-07-29T14:28:08.526Z,96079.63
2022-07-29T14:30:35.007Z,96075.59
2022-07-29T14:33:03.322Z,96076.25
2022-07-29T14:35:33.816Z,96067.19
2022-07-29T14:38:00.419Z,96066.78
2022-07-29T14:40:26.808Z,96069.47
2022-07-29T14:42:53.208Z,96070.13
2022-07-29T14:45:19.675Z,96069.34
2022-07-29T14:47:46.132Z,96070.94
2022-07-29T14:50:12.546Z,96070.13
2022-07-29T14:52:38.981Z,96063.94
2022-07-29T14:55:16.478Z,96064.47
2022-07-29T14:57:48.311Z,96054.22
2022-07-29T15:00:14.730Z,96049.59
2022-07-29T15:03:00.977Z,96054.53
2022-07-29T15:05:27.640Z,96054.53
2022-07-29T15:07:54.062Z,96052.63
2022-07-29T15:10:20.491Z,96049.50
2022-07-29T15:12:50.358Z,96049.09
2022-07-29T15:15:18.482Z,96045.94
2022-07-29T15:17:44.863Z,96041.72
2022-07-29T15:20:11.310Z,96043.94
2022-07-29T15:22:37.697Z,96034.56
2022-07-29T15:25:04.109Z,96031.25
2022-07-29T15:27:30.681Z,96032.84
2022-07-29T15:29:57.067Z,96030.97
2022-07-29T15:32:23.536Z,96029.81
2022-07-29T15:34:50.087Z,96031.94
2022-07-29T15:37:16.522Z,96033.34
2022-07-29T15:39:42.913Z,96037.53
2022-07-29T15:42:09.430Z,96029.47
2022-07-29T15:44:35.847Z,96036.22
2022-07-29T15:47:02.780Z,96036.88
2022-07-29T15:49:29.355Z,96028.19
2022-07-29T15:52:15.318Z,96023.78
2022-07-29T15:54:42.903Z,96030.25
2022-07-29T15:57:09.846Z,96031.00
2022-07-29T15:59:37.333Z,96024.81
2022-07-29T16:02:03.826Z,96026.69
2022-07-29T16:04:30.248Z,96028.94
2022-07-29T16:06:56.966Z,96023.63
2022-07-29T16:09:23.600Z,96018.47
2022-07-29T16:11:50.019Z,96021.16
2022-07-29T16:14:17.594Z,96026.91
2022-07-29T16:16:44.106Z,96022.06
2022-07-29T16:19:10.546Z,96025.16
2022-07-29T16:21:36.948Z,96024.47
2022-07-29T16:24:03.509Z,96025.16
2022-07-29T16:26:30.508Z,96020.13
2022-07-29T16:28:56.979Z,96016.44
2022-07-29T16:31:23.675Z,96022.00
2022-07-29T16:33:55.478Z,96030.88
2022-07-29T16:36:22.215Z,96026.84
2022-07-29T16:38:48.645Z,96023.47
2022-07-29T16:41:15.031Z,96029.63
2022-07-29T16:43:41.465Z,96010.88
2022-07-29T16:46:13.154Z,96020.28
2022-07-29T16:48:45.169Z,96019.22
2022-07-29T16:51:14.375Z,96031.03
2022-07-29T16:53:41.078Z,96023.47
2022-07-29T16:56:07.481Z,96020.88
2022-07-29T16:58:43.747Z,96021.97
2022-07-29T17:01:10.434Z,96023.56
2022-07-29T17:03:38.950Z,96017.34
2022-07-29T17:06:05.380Z,96019.19
2022-07-29T17:08:31.840Z,96019.97
2022-07-29T17:10:58.242Z,96025.50
2022-07-29T17:13:24.691Z,96018.50
2022-07-29T17:15:51.169Z,96014.41
2022-07-29T17:18:17.617Z,96024.56
2022-07-29T17:20:44.088Z,96020.78
2022-07-29T17:23:10.479Z,96023.81
2022-07-29T17:25:37.999Z,96024.56
2022-07-29T17:28:04.488Z,96024.13
2022-07-29T17:30:30.920Z,96020.78
2022-07-29T17:32:57.422Z,96035.97
2022-07-29T17:35:24.063Z,96031.25
2022-07-29T17:37:50.460Z,96030.19
2022-07-29T17:40:16.849Z,96031.56
2022-07-29T17:42:43.321Z,96031.78
2022-07-29T17:45:09.734Z,96027.25
2022-07-29T17:47:36.122Z,96025.31
2022-07-29T17:50:02.586Z,96029.75
2022-07-29T17:52:28.977Z,96031.69
2022-07-29T17:54:55.395Z,96033.69
2022-07-29T17:57:21.893Z,96037.06
2022-07-29T17:59:48.316Z,96032.53
2022-07-29T18:02:14.825Z,96038.03
2022-07-29T18:04:41.385Z,96039.06
2022-07-29T18:07:07.804Z,96036.06
2022-07-29T18:09:37.129Z,96035.97
2022-07-29T18:12:03.685Z,96030.81
2022-07-29T18:14:30.102Z,96037.28
2022-07-29T18:16:58.119Z,96037.72
2022-07-29T18:19:24.650Z,96045.34
2022-07-29T18:21:54.151Z,96047.25
2022-07-29T18:24:21.785Z,96049.19
2022-07-29T18:26:48.222Z,96047.19
2022-07-29T18:29:14.634Z,96055.63
2022-07-29T18:31:41.182Z,96050.00
2022-07-29T18:34:07.792Z,96050.34
2022-07-29T18:36:34.182Z,96053.13
2022-07-29T18:39:00.641Z,96059.09
2022-07-29T18:41:27.109Z,96056.66
2022-07-29T18:43:58.476Z,96058.41
2022-07-29T18:46:25.475Z,96055.38
2022-07-29T18:48:52.171Z,96052.03
2022-07-29T18:51:18.601Z,96053.53
2022-07-29T18:53:45.055Z,96049.59
2022-07-29T18:56:12.597Z,96046.59
2022-07-29T18:58:39.031Z,96045.38
2022-07-29T19:01:05.454Z,96044.88
2022-07-29T19:03:31.939Z,96063.97
2022-07-29T19:05:58.332Z,96058.53
2022-07-29T19:08:24.730Z,96065.13
2022-07-29T19:10:51.649Z,96063.47
2022-07-29T19:13:19.150Z,96060.03
2022-07-29T19:15:45.595Z,96069.91
2022-07-29T19:18:12.119Z,96077.75
2022-07-29T19:20:39.884Z,96079.91
2022-07-29T19:23:06.299Z,96083.00
2022-07-29T19:25:32.752Z,96081.53
2022-07-29T19:28:02.192Z,96087.28
2022-07-29T19:30:28.580Z,96090.31
2022-07-29T19:32:55.183Z,96092.91
2022-07-29T19:35:21.575Z,96096.34
2022-07-29T19:37:47.986Z,96105.72
2022-07-29T19:40:14.451Z,96108.41
2022-07-29T19:42:40.873Z,96106.72
2022-07-29T19:45:07.291Z,96114.13
2022-07-29T19:47:36.230Z,96116.56
2022-07-29T19:50:02.656Z,96109.34
2022-07-29T19:52:30.259Z,96117.06
2022-07-29T19:54:56.725Z,96124.94
2022-07-29T19:57:25.487Z,96123.00
2022-07-29T19:59:52.675Z,96141.03
2022-07-29T20:02:19.402Z,96142.25
2022-07-29T20:04:45.896Z,96140.28
2022-07-29T20:07:12.292Z,96147.13
2022-07-29T20:09:38.815Z,96149.75
2022-07-29T20:12:05.246Z,96144.59
2022-07-29T20:14:31.639Z,96145.00
2022-07-29T20:16:58.252Z,96153.59
2022-07-29T20:19:24.793Z,96146.25
2022-07-29T20:21:51.195Z,96145.66
2022-07-29T20:24:17.640Z,96148.69
2022-07-29T20:26:44.043Z,96149.81
2022-07-29T20:29:10.472Z,96143.72
2022-07-29T20:31:37.210Z,96141.38
2022-07-29T20:34:03.596Z,96142.47
2022-07-29T20:36:30.038Z,96148.94
2022-07-29T20:38:56.473Z,96142.47
2022-07-29T20:41:22.867Z,96143.19
2022-07-29T20:43:49.293Z,96146.06
2022-07-29T20:46:15.942Z,96142.97
2022-07-29T20:48:42.440Z,96133.59
2022-07-29T20:51:08.995Z,96132.81
2022-07-29T20:53:36.402Z,96132.50
2022-07-29T20:56:02.857Z,96131.75
2022-07-29T20:58:32.417Z,96129.06
2022-07-29T21:00:59.981Z,96133.25
2022-07-29T21:03:26.410Z,96132.41
2022-07-29T21:05:52.805Z,96130.75
2022-07-29T21:08:21.418Z,96138.88
2022-07-29T21:10:47.832Z,96130.50
2022-07-29T21:13:14.246Z,96137.75
2022-07-29T21:15:40.720Z,96134.03
2022-07-29T21:18:07.184Z,96136.00
2022-07-29T21:20:35.676Z,96141.56
2022-07-29T21:23:02.224Z,96132.31
2022-07-29T21:25:28.665Z,96134.25
2022-07-29T21:27:55.064Z,96135.09
2022-07-29T21:30:21.645Z,96139.19
2022-07-29T21:32:48.089Z,96131.16
2022-07-29T21:35:35.852Z,96131.47
2022-07-29T21:38:00.977Z,96132.66
2022-07-29T21:40:27.396Z,96140.72
2022-07-29T21:42:53.795Z,96148.34
2022-07-29T21:45:20.274Z,96137.81
2022-07-29T21:47:46.760Z,96143.34
2022-07-29T21:50:13.144Z,96143.28
2022-07-29T21:52:39.645Z,96146.34
2022-07-29T21:55:06.407Z,96137.59
2022-07-29T21:57:33.417Z,96147.69
2022-07-29T22:00:03.438Z,96143.41
2022-07-29T22:02:29.894Z,96142.22
2022-07-29T22:04:56.331Z,96145.13
2022-07-29T22:07:22.918Z,96145.97
2022-07-29T22:09:49.348Z,96147.19
2022-07-29T22:12:15.723Z,96142.66
2022-07-29T22:14:42.266Z,96153.78
2022-07-29T22:17:08.701Z,96152.31
2022-07-29T22:19:35.150Z,96152.69
2022-07-29T22:22:01.634Z,96152.34
2022-07-29T22:24:28.174Z,96155.56
2022-07-29T22:26:59.221Z,96155.88
2022-07-29T22:29:25.908Z,96161.78
2022-07-29T22:31:52.358Z,96166.75
2022-07-29T22:34:20.828Z,96159.75
2022-07-29T22:36:47.385Z,96162.09
2022-07-29T22:39:15.634Z,96167.38
2022-07-29T22:41:42.747Z,96171.16
2022-07-29T22:44:10.308Z,96173.19
2022-07-29T22:46:36.706Z,96170.78
2022-07-29T22:49:03.186Z,96174.84
2022-07-29T22:51:29.723Z,96169.47
2022-07-29T22:53:56.115Z,96178.03
2022-07-29T22:56:22.520Z,96181.91
2022-07-29T22:58:50.310Z,96177.81
2022-07-29T23:01:16.768Z,96186.19
2022-07-29T23:04:03.282Z,96186.94
2022-07-29T23:06:29.818Z,96181.13
2022-07-29T23:08:56.203Z,96183.81
2022-07-29T23:11:22.672Z,96188.34
2022-07-29T23:13:49.109Z,96182.22
2022-07-29T23:16:15.738Z,96195.31
2022-07-29T23:18:53.439Z,96195.91
2022-07-29T23:21:19.847Z,96185.41
2022-07-29T23:23:50.302Z,96189.75
2022-07-29T23:26:17.039Z,96184.06
2022-07-29T23:28:43.478Z,96183.50
2022-07-29T23:31:09.920Z,96187.91
2022-07-29T23:33:36.347Z,96190.28
2022-07-29T23:36:02.789Z,96191.03
2022-07-29T23:38:29.185Z,96187.34
2022-07-29T23:40:55.649Z,96189.97
2022-07-29T23:43:22.051Z,96191.13
2022-07-29T23:45:48.913Z,96191.81
2022-07-29T23:48:15.561Z,96192.75
2022-07-29T23:50:41.968Z,96187.41
2022-07-29T23:53:08.414Z,96184.56
2022-07-29T23:55:38.630Z,96187.19
2022-07-29T23:58:05.588Z,96192.13
